sensor_id;sensor_type;location;lat;lon;timestamp;P1;durP1;ratioP1;P2;durP2;ratioP2
35223;SDS011;21367;51.930;8.112;2022-10-13T00:06:58;30.90;;;11.40;;
35223;SDS011;21367;51.930;8.112;2022-10-13T00:12:04;31.88;;;12.20;;
35223;SDS011;21367;51.930;8.112;2022-10-13T00:22:11;27.02;;;12.25;;
35223;SDS011;21367;51.930;8.112;2022-10-13T00:27:20;42.58;;;11.38;;
35223;SDS011;21367;51.930;8.112;2022-10-13T00:32:24;27.05;;;11.63;;
35223;SDS011;21367;51.930;8.112;2022-10-13T00:37:27;27.45;;;10.95;;
35223;SDS011;21367;51.930;8.112;2022-10-13T00:42:33;31.70;;;11.65;;
35223;SDS011;21367;51.930;8.112;2022-10-13T00:47:39;38.58;;;13.30;;
35223;SDS011;21367;51.930;8.112;2022-10-13T00:52:45;44.47;;;14.60;;
35223;SDS011;21367;51.930;8.112;2022-10-13T00:57:54;49.67;;;14.90;;
35223;SDS011;21367;51.930;8.112;2022-10-13T01:03:03;55.65;;;15.43;;
35223;SDS011;21367;51.930;8.112;2022-10-13T01:08:07;48.25;;;16.20;;
35223;SDS011;21367;51.930;8.112;2022-10-13T01:13:19;45.40;;;14.70;;
35223;SDS011;21367;51.930;8.112;2022-10-13T01:18:39;59.60;;;16.45;;
35223;SDS011;21367;51.930;8.112;2022-10-13T01:35:09;34.20;;;12.13;;
35223;SDS011;21367;51.930;8.112;2022-10-13T01:40:20;41.40;;;14.02;;
35223;SDS011;21367;51.930;8.112;2022-10-13T01:45:29;37.17;;;12.27;;
35223;SDS011;21367;51.930;8.112;2022-10-13T01:50:38;26.88;;;10.90;;
35223;SDS011;21367;51.930;8.112;2022-10-13T01:55:49;29.80;;;11.35;;
35223;SDS011;21367;51.930;8.112;2022-10-13T02:00:58;24.38;;;9.95;;
35223;SDS011;21367;51.930;8.112;2022-10-13T02:06:12;26.35;;;10.73;;
35223;SDS011;21367;51.930;8.112;2022-10-13T02:11:22;29.90;;;10.57;;
35223;SDS011;21367;51.930;8.112;2022-10-13T02:16:26;36.03;;;10.43;;
35223;SDS011;21367;51.930;8.112;2022-10-13T02:21:36;22.60;;;9.93;;
35223;SDS011;21367;51.930;8.112;2022-10-13T02:26:40;23.13;;;9.57;;
35223;SDS011;21367;51.930;8.112;2022-10-13T02:31:45;28.48;;;11.02;;
35223;SDS011;21367;51.930;8.112;2022-10-13T02:36:52;32.45;;;12.80;;
35223;SDS011;21367;51.930;8.112;2022-10-13T02:41:55;48.90;;;12.98;;
35223;SDS011;21367;51.930;8.112;2022-10-13T02:46:59;53.55;;;15.18;;
35223;SDS011;21367;51.930;8.112;2022-10-13T02:52:07;41.90;;;14.50;;
35223;SDS011;21367;51.930;8.112;2022-10-13T02:57:16;56.10;;;17.15;;
35223;SDS011;21367;51.930;8.112;2022-10-13T03:02:21;36.45;;;14.65;;
35223;SDS011;21367;51.930;8.112;2022-10-13T03:07:28;48.45;;;16.35;;
35223;SDS011;21367;51.930;8.112;2022-10-13T03:12:31;39.13;;;15.57;;
35223;SDS011;21367;51.930;8.112;2022-10-13T03:17:36;42.15;;;14.57;;
35223;SDS011;21367;51.930;8.112;2022-10-13T03:22:42;36.65;;;14.65;;
35223;SDS011;21367;51.930;8.112;2022-10-13T03:32:49;83.65;;;24.00;;
35223;SDS011;21367;51.930;8.112;2022-10-13T03:37:55;86.05;;;24.23;;
35223;SDS011;21367;51.930;8.112;2022-10-13T03:43:01;87.82;;;25.50;;
35223;SDS011;21367;51.930;8.112;2022-10-13T03:48:04;44.00;;;18.77;;
35223;SDS011;21367;51.930;8.112;2022-10-13T03:53:11;50.55;;;17.73;;
35223;SDS011;21367;51.930;8.112;2022-10-13T03:58:15;36.28;;;16.20;;
35223;SDS011;21367;51.930;8.112;2022-10-13T04:03:22;42.10;;;15.85;;
35223;SDS011;21367;51.930;8.112;2022-10-13T04:08:28;30.60;;;14.23;;
35223;SDS011;21367;51.930;8.112;2022-10-13T04:13:33;36.38;;;14.88;;
35223;SDS011;21367;51.930;8.112;2022-10-13T04:18:37;32.10;;;14.90;;
35223;SDS011;21367;51.930;8.112;2022-10-13T04:23:43;30.30;;;14.48;;
35223;SDS011;21367;51.930;8.112;2022-10-13T04:28:47;34.00;;;14.95;;
35223;SDS011;21367;51.930;8.112;2022-10-13T04:33:52;39.58;;;15.18;;
35223;SDS011;21367;51.930;8.112;2022-10-13T04:38:59;36.50;;;14.65;;
35223;SDS011;21367;51.930;8.112;2022-10-13T04:49:06;33.67;;;14.05;;
35223;SDS011;21367;51.930;8.112;2022-10-13T04:54:14;34.47;;;15.00;;
35223;SDS011;21367;51.930;8.112;2022-10-13T04:59:18;31.98;;;15.25;;
35223;SDS011;21367;51.930;8.112;2022-10-13T05:04:22;30.92;;;14.63;;
35223;SDS011;21367;51.930;8.112;2022-10-13T05:09:28;34.55;;;15.68;;
35223;SDS011;21367;51.930;8.112;2022-10-13T05:14:32;42.67;;;16.58;;
35223;SDS011;21367;51.930;8.112;2022-10-13T05:19:41;42.45;;;16.00;;
35223;SDS011;21367;51.930;8.112;2022-10-13T05:24:47;40.30;;;16.35;;
35223;SDS011;21367;51.930;8.112;2022-10-13T05:29:50;38.03;;;15.82;;
35223;SDS011;21367;51.930;8.112;2022-10-13T05:34:54;35.28;;;16.55;;
35223;SDS011;21367;51.930;8.112;2022-10-13T05:40:00;51.72;;;18.83;;
35223;SDS011;21367;51.930;8.112;2022-10-13T05:45:05;42.90;;;16.75;;
35223;SDS011;21367;51.930;8.112;2022-10-13T05:50:11;43.83;;;15.93;;
35223;SDS011;21367;51.930;8.112;2022-10-13T05:55:18;32.60;;;15.13;;
35223;SDS011;21367;51.930;8.112;2022-10-13T06:00:22;41.42;;;16.17;;
35223;SDS011;21367;51.930;8.112;2022-10-13T06:05:28;39.58;;;15.88;;
35223;SDS011;21367;51.930;8.112;2022-10-13T06:10:37;35.17;;;15.90;;
35223;SDS011;21367;51.930;8.112;2022-10-13T06:15:41;32.92;;;15.65;;
35223;SDS011;21367;51.930;8.112;2022-10-13T06:20:45;34.17;;;15.63;;
35223;SDS011;21367;51.930;8.112;2022-10-13T06:25:51;45.08;;;16.60;;
35223;SDS011;21367;51.930;8.112;2022-10-13T06:30:56;46.08;;;16.05;;
35223;SDS011;21367;51.930;8.112;2022-10-13T06:36:01;39.60;;;16.33;;
35223;SDS011;21367;51.930;8.112;2022-10-13T06:41:07;54.97;;;17.13;;
35223;SDS011;21367;51.930;8.112;2022-10-13T06:46:13;41.70;;;17.52;;
35223;SDS011;21367;51.930;8.112;2022-10-13T06:51:17;41.03;;;16.00;;
35223;SDS011;21367;51.930;8.112;2022-10-13T06:56:25;34.07;;;16.23;;
35223;SDS011;21367;51.930;8.112;2022-10-13T07:01:32;37.25;;;14.68;;
35223;SDS011;21367;51.930;8.112;2022-10-13T07:06:41;32.10;;;14.15;;
35223;SDS011;21367;51.930;8.112;2022-10-13T07:11:48;43.00;;;16.48;;
35223;SDS011;21367;51.930;8.112;2022-10-13T07:21:55;44.03;;;16.15;;
35223;SDS011;21367;51.930;8.112;2022-10-13T07:27:02;46.08;;;15.32;;
35223;SDS011;21367;51.930;8.112;2022-10-13T07:32:06;37.58;;;15.25;;
35223;SDS011;21367;51.930;8.112;2022-10-13T07:37:09;33.20;;;13.93;;
35223;SDS011;21367;51.930;8.112;2022-10-13T07:42:16;34.80;;;14.40;;
35223;SDS011;21367;51.930;8.112;2022-10-13T07:47:20;39.00;;;15.68;;
35223;SDS011;21367;51.930;8.112;2022-10-13T07:52:24;35.08;;;14.60;;
35223;SDS011;21367;51.930;8.112;2022-10-13T07:57:30;34.35;;;14.85;;
35223;SDS011;21367;51.930;8.112;2022-10-13T08:02:34;32.10;;;12.68;;
35223;SDS011;21367;51.930;8.112;2022-10-13T08:07:39;31.10;;;14.35;;
35223;SDS011;21367;51.930;8.112;2022-10-13T08:12:45;31.35;;;12.50;;
35223;SDS011;21367;51.930;8.112;2022-10-13T08:17:48;30.77;;;11.63;;
35223;SDS011;21367;51.930;8.112;2022-10-13T08:22:53;31.90;;;12.20;;
35223;SDS011;21367;51.930;8.112;2022-10-13T08:27:59;36.45;;;11.18;;
35223;SDS011;21367;51.930;8.112;2022-10-13T08:33:03;28.73;;;10.10;;
35223;SDS011;21367;51.930;8.112;2022-10-13T08:38:07;25.30;;;9.98;;
35223;SDS011;21367;51.930;8.112;2022-10-13T08:43:15;27.55;;;9.02;;
35223;SDS011;21367;51.930;8.112;2022-10-13T08:48:20;27.42;;;9.85;;
35223;SDS011;21367;51.930;8.112;2022-10-13T08:53:27;21.95;;;9.95;;
35223;SDS011;21367;51.930;8.112;2022-10-13T08:58:36;25.25;;;10.95;;
35223;SDS011;21367;51.930;8.112;2022-10-13T09:03:48;30.95;;;10.88;;
35223;SDS011;21367;51.930;8.112;2022-10-13T09:08:55;32.70;;;10.02;;
35223;SDS011;21367;51.930;8.112;2022-10-13T09:14:04;27.52;;;10.50;;
35223;SDS011;21367;51.930;8.112;2022-10-13T09:19:13;32.25;;;10.52;;
35223;SDS011;21367;51.930;8.112;2022-10-13T09:24:22;25.33;;;9.98;;
35223;SDS011;21367;51.930;8.112;2022-10-13T09:29:30;25.27;;;10.07;;
35223;SDS011;21367;51.930;8.112;2022-10-13T09:34:34;30.60;;;11.10;;
35223;SDS011;21367;51.930;8.112;2022-10-13T09:39:39;24.65;;;11.52;;
35223;SDS011;21367;51.930;8.112;2022-10-13T09:44:45;33.97;;;11.43;;
35223;SDS011;21367;51.930;8.112;2022-10-13T09:50:04;30.52;;;11.82;;
35223;SDS011;21367;51.930;8.112;2022-10-13T09:55:26;39.83;;;12.43;;
35223;SDS011;21367;51.930;8.112;2022-10-13T10:00:36;27.08;;;10.95;;
35223;SDS011;21367;51.930;8.112;2022-10-13T10:05:42;44.08;;;11.68;;
35223;SDS011;21367;51.930;8.112;2022-10-13T10:10:51;26.23;;;10.35;;
35223;SDS011;21367;51.930;8.112;2022-10-13T10:16:00;29.13;;;11.32;;
35223;SDS011;21367;51.930;8.112;2022-10-13T10:21:09;28.73;;;10.20;;
35223;SDS011;21367;51.930;8.112;2022-10-13T10:26:21;26.42;;;10.43;;
35223;SDS011;21367;51.930;8.112;2022-10-13T10:31:37;29.10;;;9.65;;
35223;SDS011;21367;51.930;8.112;2022-10-13T10:36:52;32.83;;;10.20;;
35223;SDS011;21367;51.930;8.112;2022-10-13T10:42:06;29.25;;;9.02;;
35223;SDS011;21367;51.930;8.112;2022-10-13T10:47:27;27.75;;;9.85;;
35223;SDS011;21367;51.930;8.112;2022-10-13T10:52:40;22.77;;;9.20;;
35223;SDS011;21367;51.930;8.112;2022-10-13T10:57:55;24.40;;;8.77;;
35223;SDS011;21367;51.930;8.112;2022-10-13T11:03:12;19.35;;;8.77;;
35223;SDS011;21367;51.930;8.112;2022-10-13T11:08:29;24.02;;;8.32;;
35223;SDS011;21367;51.930;8.112;2022-10-13T11:13:48;26.65;;;9.10;;
35223;SDS011;21367;51.930;8.112;2022-10-13T11:19:03;20.60;;;8.00;;
35223;SDS011;21367;51.930;8.112;2022-10-13T11:24:47;20.15;;;7.15;;
35223;SDS011;21367;51.930;8.112;2022-10-13T11:29:56;26.50;;;8.15;;
35223;SDS011;21367;51.930;8.112;2022-10-13T11:35:13;23.07;;;8.10;;
35223;SDS011;21367;51.930;8.112;2022-10-13T11:40:23;35.00;;;9.13;;
35223;SDS011;21367;51.930;8.112;2022-10-13T11:45:38;20.35;;;7.60;;
35223;SDS011;21367;51.930;8.112;2022-10-13T11:50:53;29.58;;;8.18;;
35223;SDS011;21367;51.930;8.112;2022-10-13T11:56:17;25.48;;;7.82;;
35223;SDS011;21367;51.930;8.112;2022-10-13T12:01:22;19.65;;;7.07;;
35223;SDS011;21367;51.930;8.112;2022-10-13T12:06:30;25.33;;;7.20;;
35223;SDS011;21367;51.930;8.112;2022-10-13T12:11:37;20.27;;;6.50;;
35223;SDS011;21367;51.930;8.112;2022-10-13T12:16:50;19.20;;;7.43;;
35223;SDS011;21367;51.930;8.112;2022-10-13T12:21:59;17.05;;;6.32;;
35223;SDS011;21367;51.930;8.112;2022-10-13T12:27:08;18.00;;;6.43;;
35223;SDS011;21367;51.930;8.112;2022-10-13T12:32:17;18.20;;;6.18;;
35223;SDS011;21367;51.930;8.112;2022-10-13T12:37:28;18.98;;;6.47;;
35223;SDS011;21367;51.930;8.112;2022-10-13T12:42:36;13.70;;;4.97;;
35223;SDS011;21367;51.930;8.112;2022-10-13T12:47:45;13.63;;;5.07;;
35223;SDS011;21367;51.930;8.112;2022-10-13T12:52:54;20.42;;;4.60;;
35223;SDS011;21367;51.930;8.112;2022-10-13T13:03:20;14.25;;;4.50;;
35223;SDS011;21367;51.930;8.112;2022-10-13T13:08:31;18.05;;;4.60;;
35223;SDS011;21367;51.930;8.112;2022-10-13T13:18:39;11.98;;;4.60;;
35223;SDS011;21367;51.930;8.112;2022-10-13T13:23:46;10.97;;;4.20;;
35223;SDS011;21367;51.930;8.112;2022-10-13T13:28:51;13.32;;;4.07;;
35223;SDS011;21367;51.930;8.112;2022-10-13T13:33:56;13.18;;;5.25;;
35223;SDS011;21367;51.930;8.112;2022-10-13T13:39:02;20.58;;;4.72;;
35223;SDS011;21367;51.930;8.112;2022-10-13T13:44:06;13.88;;;3.80;;
35223;SDS011;21367;51.930;8.112;2022-10-13T13:49:11;23.42;;;4.65;;
35223;SDS011;21367;51.930;8.112;2022-10-13T13:54:17;16.98;;;4.95;;
35223;SDS011;21367;51.930;8.112;2022-10-13T13:59:21;15.63;;;5.18;;
35223;SDS011;21367;51.930;8.112;2022-10-13T14:04:26;14.53;;;5.53;;
35223;SDS011;21367;51.930;8.112;2022-10-13T14:09:32;15.23;;;5.50;;
35223;SDS011;21367;51.930;8.112;2022-10-13T14:19:43;16.65;;;6.68;;
35223;SDS011;21367;51.930;8.112;2022-10-13T14:24:49;21.27;;;7.10;;
35223;SDS011;21367;51.930;8.112;2022-10-13T14:29:52;12.13;;;6.15;;
35223;SDS011;21367;51.930;8.112;2022-10-13T14:34:56;22.23;;;6.82;;
35223;SDS011;21367;51.930;8.112;2022-10-13T14:40:03;21.20;;;6.75;;
35223;SDS011;21367;51.930;8.112;2022-10-13T14:45:07;15.77;;;5.85;;
35223;SDS011;21367;51.930;8.112;2022-10-13T14:50:12;18.33;;;6.85;;
35223;SDS011;21367;51.930;8.112;2022-10-13T14:55:19;16.83;;;5.90;;
35223;SDS011;21367;51.930;8.112;2022-10-13T15:00:23;16.27;;;6.55;;
35223;SDS011;21367;51.930;8.112;2022-10-13T15:05:27;17.63;;;6.90;;
35223;SDS011;21367;51.930;8.112;2022-10-13T15:15:44;22.15;;;7.75;;
35223;SDS011;21367;51.930;8.112;2022-10-13T15:20:48;21.75;;;8.48;;
35223;SDS011;21367;51.930;8.112;2022-10-13T15:25:58;21.42;;;8.32;;
35223;SDS011;21367;51.930;8.112;2022-10-13T15:31:03;28.23;;;9.27;;
35223;SDS011;21367;51.930;8.112;2022-10-13T15:36:07;26.73;;;10.23;;
35223;SDS011;21367;51.930;8.112;2022-10-13T15:41:15;24.27;;;9.57;;
35223;SDS011;21367;51.930;8.112;2022-10-13T15:46:20;28.70;;;10.65;;
35223;SDS011;21367;51.930;8.112;2022-10-13T15:51:25;23.38;;;9.65;;
35223;SDS011;21367;51.930;8.112;2022-10-13T15:56:32;27.20;;;10.82;;
35223;SDS011;21367;51.930;8.112;2022-10-13T16:01:35;32.85;;;11.55;;
35223;SDS011;21367;51.930;8.112;2022-10-13T16:06:39;30.75;;;14.20;;
35223;SDS011;21367;51.930;8.112;2022-10-13T16:11:46;36.28;;;13.55;;
35223;SDS011;21367;51.930;8.112;2022-10-13T16:21:53;31.00;;;12.60;;
35223;SDS011;21367;51.930;8.112;2022-10-13T16:26:59;31.98;;;13.15;;
35223;SDS011;21367;51.930;8.112;2022-10-13T16:32:06;35.22;;;14.05;;
35223;SDS011;21367;51.930;8.112;2022-10-13T16:37:09;35.45;;;13.63;;
35223;SDS011;21367;51.930;8.112;2022-10-13T16:42:15;40.58;;;15.70;;
35223;SDS011;21367;51.930;8.112;2022-10-13T16:47:19;40.63;;;15.95;;
35223;SDS011;21367;51.930;8.112;2022-10-13T16:52:23;29.42;;;14.98;;
35223;SDS011;21367;51.930;8.112;2022-10-13T16:57:30;38.33;;;15.38;;
35223;SDS011;21367;51.930;8.112;2022-10-13T17:02:34;41.35;;;15.65;;
35223;SDS011;21367;51.930;8.112;2022-10-13T17:07:38;34.38;;;15.48;;
35223;SDS011;21367;51.930;8.112;2022-10-13T17:12:44;43.00;;;16.20;;
35223;SDS011;21367;51.930;8.112;2022-10-13T17:22:55;52.85;;;22.05;;
35223;SDS011;21367;51.930;8.112;2022-10-13T17:28:01;40.45;;;19.80;;
35223;SDS011;21367;51.930;8.112;2022-10-13T17:33:05;40.33;;;16.77;;
35223;SDS011;21367;51.930;8.112;2022-10-13T17:38:11;43.58;;;16.98;;
35223;SDS011;21367;51.930;8.112;2022-10-13T17:43:17;43.22;;;17.40;;
35223;SDS011;21367;51.930;8.112;2022-10-13T17:48:21;42.65;;;18.75;;
35223;SDS011;21367;51.930;8.112;2022-10-13T17:53:25;46.47;;;18.40;;
35223;SDS011;21367;51.930;8.112;2022-10-13T17:58:33;46.60;;;18.67;;
35223;SDS011;21367;51.930;8.112;2022-10-13T18:03:41;42.08;;;19.75;;
35223;SDS011;21367;51.930;8.112;2022-10-13T18:08:46;53.90;;;20.20;;
35223;SDS011;21367;51.930;8.112;2022-10-13T18:13:52;44.67;;;21.58;;
35223;SDS011;21367;51.930;8.112;2022-10-13T18:18:56;40.33;;;20.33;;
35223;SDS011;21367;51.930;8.112;2022-10-13T18:24:00;35.90;;;17.58;;
35223;SDS011;21367;51.930;8.112;2022-10-13T18:29:07;44.78;;;20.10;;
35223;SDS011;21367;51.930;8.112;2022-10-13T18:34:13;42.30;;;19.05;;
35223;SDS011;21367;51.930;8.112;2022-10-13T18:39:18;47.45;;;18.92;;
35223;SDS011;21367;51.930;8.112;2022-10-13T18:44:27;42.08;;;17.25;;
35223;SDS011;21367;51.930;8.112;2022-10-13T18:49:31;51.70;;;19.70;;
35223;SDS011;21367;51.930;8.112;2022-10-13T18:54:34;35.40;;;19.20;;
35223;SDS011;21367;51.930;8.112;2022-10-13T18:59:41;41.95;;;19.00;;
35223;SDS011;21367;51.930;8.112;2022-10-13T19:09:48;44.03;;;18.15;;
35223;SDS011;21367;51.930;8.112;2022-10-13T19:14:55;39.20;;;18.45;;
35223;SDS011;21367;51.930;8.112;2022-10-13T19:19:59;47.25;;;19.50;;
35223;SDS011;21367;51.930;8.112;2022-10-13T19:25:03;38.83;;;18.42;;
35223;SDS011;21367;51.930;8.112;2022-10-13T19:30:10;35.25;;;17.67;;
35223;SDS011;21367;51.930;8.112;2022-10-13T19:35:15;36.25;;;17.42;;
35223;SDS011;21367;51.930;8.112;2022-10-13T19:40:21;45.13;;;18.00;;
35223;SDS011;21367;51.930;8.112;2022-10-13T19:45:27;35.83;;;16.88;;
35223;SDS011;21367;51.930;8.112;2022-10-13T19:50:31;41.38;;;18.58;;
35223;SDS011;21367;51.930;8.112;2022-10-13T19:55:36;41.35;;;17.98;;
35223;SDS011;21367;51.930;8.112;2022-10-13T20:00:43;39.30;;;18.27;;
35223;SDS011;21367;51.930;8.112;2022-10-13T20:05:49;50.08;;;20.77;;
35223;SDS011;21367;51.930;8.112;2022-10-13T20:10:53;50.40;;;21.15;;
35223;SDS011;21367;51.930;8.112;2022-10-13T20:16:02;44.90;;;22.13;;
35223;SDS011;21367;51.930;8.112;2022-10-13T20:21:09;48.88;;;20.58;;
35223;SDS011;21367;51.930;8.112;2022-10-13T20:26:14;49.22;;;21.90;;
35223;SDS011;21367;51.930;8.112;2022-10-13T20:31:21;44.40;;;20.83;;
35223;SDS011;21367;51.930;8.112;2022-10-13T20:36:26;48.35;;;22.58;;
35223;SDS011;21367;51.930;8.112;2022-10-13T20:41:30;53.38;;;22.83;;
35223;SDS011;21367;51.930;8.112;2022-10-13T20:46:37;54.50;;;22.80;;
35223;SDS011;21367;51.930;8.112;2022-10-13T20:56:45;51.05;;;22.23;;
35223;SDS011;21367;51.930;8.112;2022-10-13T21:01:52;47.45;;;21.40;;
35223;SDS011;21367;51.930;8.112;2022-10-13T21:06:55;51.25;;;22.67;;
35223;SDS011;21367;51.930;8.112;2022-10-13T21:11:59;50.88;;;23.25;;
35223;SDS011;21367;51.930;8.112;2022-10-13T21:17:06;50.50;;;23.67;;
35223;SDS011;21367;51.930;8.112;2022-10-13T21:27:13;51.65;;;24.63;;
35223;SDS011;21367;51.930;8.112;2022-10-13T21:32:19;53.50;;;26.23;;
35223;SDS011;21367;51.930;8.112;2022-10-13T21:37:23;52.55;;;25.73;;
35223;SDS011;21367;51.930;8.112;2022-10-13T21:42:27;51.25;;;25.98;;
35223;SDS011;21367;51.930;8.112;2022-10-13T21:47:34;57.63;;;27.73;;
35223;SDS011;21367;51.930;8.112;2022-10-13T21:57:42;66.32;;;29.48;;
35223;SDS011;21367;51.930;8.112;2022-10-13T22:02:48;71.53;;;31.05;;
35223;SDS011;21367;51.930;8.112;2022-10-13T22:07:53;69.25;;;30.50;;
35223;SDS011;21367;51.930;8.112;2022-10-13T22:12:57;72.38;;;29.85;;
35223;SDS011;21367;51.930;8.112;2022-10-13T22:18:03;70.32;;;28.70;;
35223;SDS011;21367;51.930;8.112;2022-10-13T22:23:07;61.17;;;30.92;;
35223;SDS011;21367;51.930;8.112;2022-10-13T22:28:15;65.05;;;29.73;;
35223;SDS011;21367;51.930;8.112;2022-10-13T22:33:21;59.03;;;29.73;;
35223;SDS011;21367;51.930;8.112;2022-10-13T22:38:28;71.75;;;31.98;;
35223;SDS011;21367;51.930;8.112;2022-10-13T22:43:32;74.75;;;33.50;;
35223;SDS011;21367;51.930;8.112;2022-10-13T22:48:47;65.53;;;31.90;;
35223;SDS011;21367;51.930;8.112;2022-10-13T22:53:51;75.10;;;32.70;;
35223;SDS011;21367;51.930;8.112;2022-10-13T22:58:56;70.43;;;31.77;;
35223;SDS011;21367;51.930;8.112;2022-10-13T23:04:03;63.63;;;32.40;;
35223;SDS011;21367;51.930;8.112;2022-10-13T23:09:09;70.32;;;33.08;;
35223;SDS011;21367;51.930;8.112;2022-10-13T23:14:15;59.72;;;31.42;;
35223;SDS011;21367;51.930;8.112;2022-10-13T23:19:21;76.30;;;34.35;;
35223;SDS011;21367;51.930;8.112;2022-10-13T23:24:25;74.18;;;34.42;;
35223;SDS011;21367;51.930;8.112;2022-10-13T23:29:28;74.68;;;36.00;;
35223;SDS011;21367;51.930;8.112;2022-10-13T23:34:35;77.20;;;36.13;;
35223;SDS011;21367;51.930;8.112;2022-10-13T23:39:40;83.60;;;36.13;;
35223;SDS011;21367;51.930;8.112;2022-10-13T23:44:45;67.85;;;34.47;;
35223;SDS011;21367;51.930;8.112;2022-10-13T23:49:51;85.97;;;38.13;;
35223;SDS011;21367;51.930;8.112;2022-10-13T23:54:55;82.18;;;39.03;;
